South Berwick, Maine
Current Conditions -  °F | °C
As of 12:51 PM on Sunday 25 Jan 2015 (Local Time) from KDAW Reporting Station
Clear Clear  
Wind Chill: 19°   Ceiling: Unl
Heat Index: 30°   Visibility: 10mi
Dew Point:   Wind: 15mph
Humidity: 38%   Direction: 300°WNW
Pressure: 29.59"   Gusts: 23mph
Location:  43.23°N, 70.81°W
Report Text: KDAW 251751Z AUTO 30013G20KT 250V320 10SM CLR M01/M14 A2959 RMK AO2 SLP022 60000 T10111139 10000 21028 51032
Loading
Personal Weather Stations






























Interactive Weather Map New forecast layout! Learn more

10-Day Weather Forecast

Advertisements
Track Severe Weather on mobile